createdAt,value
2019-04-26T00:00:18.072Z,6.37
2019-04-26T00:02:42.243Z,6.42
2019-04-26T00:05:04.485Z,6.80
2019-04-26T00:07:27.790Z,6.40
2019-04-26T00:09:49.218Z,7.70
2019-04-26T00:12:18.562Z,5.70
2019-04-26T00:15:01.292Z,6.28
2019-04-26T00:17:27.831Z,5.20
2019-04-26T00:19:49.617Z,6.17
2019-04-26T00:22:12.192Z,5.60
2019-04-26T00:24:36.509Z,7.08
2019-04-26T00:26:57.802Z,7.17
2019-04-26T00:29:19.326Z,5.97
2019-04-26T00:31:40.817Z,6.17
2019-04-26T00:34:02.189Z,6.28
2019-04-26T00:36:23.523Z,6.00
2019-04-26T00:38:45.677Z,6.35
2019-04-26T00:41:06.947Z,5.87
2019-04-26T00:43:28.609Z,6.10
2019-04-26T00:45:51.406Z,6.35
2019-04-26T00:48:14.000Z,5.97
2019-04-26T00:50:36.445Z,7.58
2019-04-26T00:52:58.433Z,6.33
2019-04-26T00:55:19.761Z,6.65
2019-04-26T00:57:41.325Z,6.45
2019-04-26T01:00:04.811Z,6.60
2019-04-26T01:02:28.193Z,7.03
2019-04-26T01:04:49.831Z,7.40
2019-04-26T01:07:11.806Z,7.42
2019-04-26T01:09:33.543Z,7.28
2019-04-26T01:11:54.963Z,6.22
2019-04-26T01:14:17.653Z,6.55
2019-04-26T01:16:39.435Z,6.60
2019-04-26T01:19:00.837Z,7.25
2019-04-26T01:21:22.685Z,6.90
2019-04-26T01:23:44.759Z,6.75
2019-04-26T01:26:19.354Z,6.50
2019-04-26T01:31:04.173Z,6.47
2019-04-26T01:33:28.201Z,6.05
2019-04-26T01:38:17.086Z,7.22
2019-04-26T01:40:40.655Z,6.62
2019-04-26T01:43:04.050Z,6.60
2019-04-26T01:45:27.968Z,6.17
2019-04-26T01:47:51.285Z,6.12
2019-04-26T01:50:12.668Z,5.95
2019-04-26T01:52:34.280Z,7.12
2019-04-26T01:54:55.672Z,6.40
2019-04-26T01:57:17.562Z,6.53
2019-04-26T01:59:42.070Z,6.45
2019-04-26T02:02:05.477Z,6.25
2019-04-26T02:04:29.870Z,7.37
2019-04-26T02:06:51.428Z,6.53
2019-04-26T02:09:13.510Z,7.37
2019-04-26T02:11:35.195Z,7.30
2019-04-26T02:13:56.585Z,6.67
2019-04-26T02:16:18.083Z,6.97
2019-04-26T02:18:39.668Z,7.42
2019-04-26T02:21:20.996Z,6.50
2019-04-26T02:23:56.730Z,6.62
2019-04-26T02:26:29.001Z,7.05
2019-04-26T02:28:50.449Z,7.87
2019-04-26T02:31:12.678Z,6.60
2019-04-26T02:33:35.342Z,7.20
2019-04-26T02:35:57.879Z,5.43
2019-04-26T02:38:19.897Z,6.72
2019-04-26T02:40:41.480Z,6.80
2019-04-26T02:43:03.121Z,6.87
2019-04-26T02:45:42.295Z,6.90
2019-04-26T02:48:16.911Z,7.08
2019-04-26T02:53:38.861Z,6.92
2019-04-26T02:56:19.614Z,7.53
2019-04-26T02:58:59.837Z,7.85
2019-04-26T03:01:21.218Z,7.97
2019-04-26T03:03:42.601Z,7.35
2019-04-26T03:06:03.905Z,7.05
2019-04-26T03:08:25.192Z,6.65
2019-04-26T03:10:48.579Z,6.95
2019-04-26T03:13:13.670Z,8.30
2019-04-26T03:15:46.136Z,7.50
2019-04-26T03:18:28.162Z,7.67
2019-04-26T03:20:53.732Z,7.12
2019-04-26T03:23:41.053Z,8.30
2019-04-26T03:25:54.976Z,8.23
2019-04-26T03:28:33.207Z,7.40
2019-04-26T03:31:27.217Z,7.40
2019-04-26T03:33:55.403Z,7.33
2019-04-26T03:37:19.038Z,7.12
2019-04-26T03:39:38.835Z,8.13
2019-04-26T03:42:21.316Z,7.62
2019-04-26T03:44:55.334Z,6.90
2019-04-26T03:47:23.370Z,7.15
2019-04-26T03:49:54.623Z,6.40
2019-04-26T03:52:22.942Z,7.05
2019-04-26T03:54:45.568Z,7.78
2019-04-26T03:57:18.231Z,6.80
2019-04-26T03:59:53.787Z,6.25
2019-04-26T04:02:36.647Z,7.25
2019-04-26T04:05:02.605Z,7.05
2019-04-26T04:07:36.759Z,7.05
2019-04-26T04:09:56.416Z,7.17
2019-04-26T04:12:25.026Z,6.95
2019-04-26T04:15:05.773Z,7.33
2019-04-26T04:17:41.314Z,6.87
2019-04-26T04:20:21.563Z,6.85
2019-04-26T04:22:58.949Z,6.97
2019-04-26T04:25:32.931Z,7.17
2019-04-26T04:28:03.341Z,6.42
2019-04-26T04:30:43.988Z,7.30
2019-04-26T04:33:09.661Z,6.58
2019-04-26T04:35:31.733Z,5.97
2019-04-26T04:38:08.668Z,6.97
2019-04-26T04:40:34.889Z,7.17
2019-04-26T04:43:11.168Z,7.33
2019-04-26T04:46:01.574Z,6.37
2019-04-26T04:48:50.591Z,6.47
2019-04-26T04:51:44.852Z,7.58
2019-04-26T04:54:31.584Z,6.77
2019-04-26T04:57:02.541Z,7.10
2019-04-26T04:59:42.654Z,6.92
2019-04-26T05:02:21.658Z,7.22
2019-04-26T05:05:06.646Z,7.78
2019-04-26T05:10:09.720Z,6.97
2019-04-26T05:12:54.286Z,6.90
2019-04-26T05:15:30.244Z,7.00
2019-04-26T05:18:01.425Z,6.75
2019-04-26T05:20:46.989Z,8.15
2019-04-26T05:23:13.813Z,6.92
2019-04-26T05:26:17.391Z,6.50
2019-04-26T05:29:21.195Z,7.28
2019-04-26T05:32:15.461Z,6.97
2019-04-26T05:34:51.263Z,7.15
2019-04-26T05:37:19.161Z,8.15
2019-04-26T05:39:51.144Z,8.70
2019-04-26T05:42:35.253Z,7.25
2019-04-26T05:45:23.866Z,7.83
2019-04-26T05:48:16.144Z,7.30
2019-04-26T05:51:02.190Z,7.60
2019-04-26T05:53:57.396Z,7.15
2019-04-26T05:56:58.396Z,5.92
2019-04-26T05:59:43.850Z,7.42
2019-04-26T06:02:32.046Z,7.72
2019-04-26T06:05:17.425Z,6.08
2019-04-26T06:08:10.062Z,8.88
2019-04-26T06:10:39.312Z,5.90
2019-04-26T06:13:20.758Z,8.18
2019-04-26T06:16:21.318Z,6.92
2019-04-26T06:19:16.837Z,7.12
2019-04-26T06:21:52.344Z,5.55
2019-04-26T06:24:37.790Z,5.60
2019-04-26T06:27:28.609Z,6.87
2019-04-26T06:30:06.074Z,5.53
2019-04-26T06:32:56.116Z,5.53
2019-04-26T06:35:15.198Z,6.35
2019-04-26T06:37:44.950Z,6.35
2019-04-26T06:40:14.792Z,6.75
2019-04-26T06:42:56.202Z,6.00
2019-04-26T06:45:40.046Z,6.33
2019-04-26T06:48:34.524Z,6.10
2019-04-26T06:51:02.757Z,6.80
2019-04-26T06:53:30.988Z,6.60
2019-04-26T06:56:09.164Z,6.30
2019-04-26T06:58:50.939Z,6.92
2019-04-26T07:01:32.749Z,5.33
2019-04-26T07:04:04.174Z,6.85
2019-04-26T07:06:35.101Z,6.80
2019-04-26T07:09:00.549Z,6.92
2019-04-26T07:11:43.349Z,6.97
2019-04-26T07:14:28.776Z,6.40
2019-04-26T07:17:05.792Z,6.45
2019-04-26T07:20:00.836Z,6.00
2019-04-26T07:22:47.013Z,7.30
2019-04-26T07:25:47.717Z,6.33
2019-04-26T07:28:48.269Z,6.67
2019-04-26T07:31:13.483Z,6.87
2019-04-26T07:33:39.789Z,6.65
2019-04-26T07:36:11.927Z,6.12
2019-04-26T07:39:09.127Z,6.30
2019-04-26T07:41:51.390Z,6.85
2019-04-26T07:44:20.914Z,6.12
2019-04-26T07:47:05.955Z,6.03
2019-04-26T07:50:07.389Z,11.18
2019-04-26T07:52:50.077Z,7.90
2019-04-26T07:55:17.952Z,10.82
2019-04-26T07:58:16.512Z,7.72
2019-04-26T08:00:48.522Z,5.75
2019-04-26T08:03:36.925Z,6.67
2019-04-26T08:06:05.780Z,6.75
2019-04-26T08:08:33.933Z,5.37
2019-04-26T08:11:19.463Z,6.55
2019-04-26T08:14:08.391Z,6.00
2019-04-26T08:16:48.771Z,6.65
2019-04-26T08:19:16.008Z,7.33
2019-04-26T08:21:42.790Z,6.25
2019-04-26T08:24:21.512Z,6.40
2019-04-26T08:26:43.555Z,6.33
2019-04-26T08:29:06.529Z,5.78
2019-04-26T08:31:28.214Z,6.70
2019-04-26T08:33:51.612Z,7.20
2019-04-26T08:36:13.000Z,6.45
2019-04-26T08:38:35.230Z,7.08
2019-04-26T08:41:16.691Z,6.33
2019-04-26T08:43:46.751Z,6.03
2019-04-26T08:46:15.798Z,7.30
2019-04-26T08:48:41.698Z,6.33
2019-04-26T08:51:05.168Z,7.60
2019-04-26T08:53:26.945Z,5.87
2019-04-26T08:55:48.454Z,6.60
2019-04-26T08:58:10.085Z,6.10
2019-04-26T09:00:39.179Z,6.85
2019-04-26T09:03:12.111Z,6.70
2019-04-26T09:05:51.420Z,7.58
2019-04-26T09:08:13.664Z,7.17
2019-04-26T09:10:34.962Z,6.83
2019-04-26T09:12:56.962Z,6.62
2019-04-26T09:15:48.314Z,6.45
2019-04-26T09:18:11.359Z,6.90
2019-04-26T09:20:32.753Z,6.25
2019-04-26T09:22:56.648Z,6.12
2019-04-26T09:25:23.802Z,5.95
2019-04-26T09:27:49.947Z,6.53
2019-04-26T09:30:13.170Z,5.85
2019-04-26T09:32:36.558Z,5.97
2019-04-26T09:34:58.163Z,5.78
2019-04-26T09:37:19.670Z,5.40
2019-04-26T09:39:42.083Z,5.90
2019-04-26T09:42:09.600Z,5.10
2019-04-26T09:44:37.608Z,5.35
2019-04-26T09:47:05.310Z,5.47
2019-04-26T09:49:28.714Z,6.05
2019-04-26T09:51:50.945Z,6.37
2019-04-26T09:54:12.339Z,6.08
2019-04-26T09:56:33.937Z,5.67
2019-04-26T09:58:55.253Z,5.55
2019-04-26T10:01:19.749Z,4.80
2019-04-26T10:03:40.140Z,6.35
2019-04-26T10:06:01.462Z,5.85
2019-04-26T10:08:22.851Z,6.15
2019-04-26T10:10:44.436Z,5.72
2019-04-26T10:13:07.854Z,5.37
2019-04-26T10:15:40.003Z,4.62
2019-04-26T10:18:03.210Z,5.80
2019-04-26T10:20:24.521Z,5.53
2019-04-26T10:22:46.106Z,5.80
2019-04-26T10:25:16.100Z,5.12
2019-04-26T10:27:32.497Z,5.85
2019-04-26T10:29:56.148Z,5.12
2019-04-26T10:32:21.549Z,5.58
2019-04-26T10:34:42.714Z,6.15
2019-04-26T10:37:06.109Z,5.92
2019-04-26T10:39:28.560Z,4.92
2019-04-26T10:41:51.219Z,5.67
2019-04-26T10:44:12.605Z,5.80
2019-04-26T10:46:33.976Z,5.92
2019-04-26T10:49:07.859Z,4.83
2019-04-26T10:51:24.093Z,6.03
2019-04-26T10:53:50.377Z,5.42
2019-04-26T10:56:28.898Z,5.08
2019-04-26T10:58:55.368Z,5.25
2019-04-26T11:01:20.322Z,4.97
2019-04-26T11:03:41.691Z,5.83
2019-04-26T11:06:03.210Z,5.78
2019-04-26T11:08:24.598Z,5.75
2019-04-26T11:10:48.747Z,5.70
2019-04-26T11:13:09.409Z,5.75
2019-04-26T11:15:32.656Z,5.55
2019-04-26T11:17:54.298Z,5.42
2019-04-26T11:20:15.831Z,4.83
2019-04-26T11:22:37.696Z,5.72
2019-04-26T11:25:00.502Z,5.45
2019-04-26T11:27:29.585Z,5.42
2019-04-26T11:29:53.924Z,5.05
2019-04-26T11:32:14.379Z,5.45
2019-04-26T11:34:36.147Z,5.08
2019-04-26T11:36:57.663Z,4.75
2019-04-26T11:39:19.245Z,5.45
2019-04-26T11:41:40.729Z,5.15
2019-04-26T11:44:02.242Z,5.35
2019-04-26T11:46:29.087Z,4.70
2019-04-26T11:48:58.392Z,5.80
2019-04-26T11:51:10.150Z,5.30
2019-04-26T11:53:33.407Z,6.20
2019-04-26T11:55:55.243Z,5.28
2019-04-26T11:58:22.015Z,5.83
2019-04-26T12:00:42.324Z,4.95
2019-04-26T12:03:03.953Z,4.65
2019-04-26T12:05:33.219Z,5.80
2019-04-26T12:07:59.355Z,4.72
2019-04-26T12:10:20.838Z,5.45
2019-04-26T12:12:43.186Z,5.30
2019-04-26T12:15:08.543Z,5.60
2019-04-26T12:17:31.209Z,5.33
2019-04-26T12:19:53.344Z,5.37
2019-04-26T12:22:15.114Z,4.75
2019-04-26T12:24:37.180Z,4.67
2019-04-26T12:26:58.798Z,4.35
2019-04-26T12:29:20.409Z,5.28
2019-04-26T12:31:41.903Z,4.37
2019-04-26T12:34:03.394Z,5.10
2019-04-26T12:36:24.802Z,4.90
2019-04-26T12:38:46.329Z,5.17
2019-04-26T12:41:07.933Z,5.00
2019-04-26T12:43:29.645Z,4.50
2019-04-26T12:45:58.608Z,4.20
2019-04-26T12:48:24.857Z,5.80
2019-04-26T12:50:46.793Z,4.85
2019-04-26T12:53:08.476Z,5.70
2019-04-26T12:55:31.013Z,5.03
2019-04-26T12:57:53.053Z,4.30
2019-04-26T13:00:16.515Z,4.47
2019-04-26T13:02:37.934Z,4.42
2019-04-26T13:04:59.232Z,4.45
2019-04-26T13:07:24.397Z,4.55
2019-04-26T13:09:53.198Z,4.50
2019-04-26T13:12:16.509Z,4.97
2019-04-26T13:14:45.966Z,4.60
2019-04-26T13:17:15.140Z,4.92
2019-04-26T13:19:36.738Z,5.33
2019-04-26T13:21:58.409Z,4.10
2019-04-26T13:24:20.226Z,4.83
2019-04-26T13:26:50.034Z,5.60
2019-04-26T13:29:10.768Z,4.90
2019-04-26T13:31:32.174Z,5.47
2019-04-26T13:33:53.551Z,4.62
2019-04-26T13:36:15.207Z,4.62
2019-04-26T13:38:39.347Z,4.42
2019-04-26T13:41:04.601Z,5.00
2019-04-26T13:43:26.975Z,4.60
2019-04-26T13:45:54.252Z,5.05
2019-04-26T13:48:27.122Z,4.60
2019-04-26T13:51:05.856Z,6.08
2019-04-26T13:53:27.883Z,5.45
2019-04-26T13:55:49.524Z,5.47
2019-04-26T13:58:11.095Z,5.40
2019-04-26T14:00:33.041Z,4.87
2019-04-26T14:02:54.397Z,5.45
2019-04-26T14:05:16.966Z,5.67
2019-04-26T14:07:38.274Z,5.40
2019-04-26T14:09:59.920Z,4.78
2019-04-26T14:12:21.594Z,4.90
2019-04-26T14:14:42.980Z,5.10
2019-04-26T14:17:04.670Z,4.05
2019-04-26T14:19:28.852Z,5.08
2019-04-26T14:21:50.682Z,4.95
2019-04-26T14:24:19.632Z,5.55
2019-04-26T14:26:44.897Z,4.75
2019-04-26T14:29:06.498Z,5.33
2019-04-26T14:31:27.943Z,4.70
2019-04-26T14:33:49.328Z,4.75
2019-04-26T14:36:17.738Z,5.22
2019-04-26T14:41:04.049Z,5.10
2019-04-26T14:43:22.323Z,5.20
2019-04-26T14:45:55.420Z,4.92
2019-04-26T14:48:20.122Z,5.10
2019-04-26T14:50:31.993Z,5.40
2019-04-26T14:52:58.263Z,5.90
2019-04-26T14:55:21.077Z,4.65
2019-04-26T14:57:42.784Z,5.25
2019-04-26T15:00:05.056Z,5.28
2019-04-26T15:02:28.755Z,5.47
2019-04-26T15:04:53.334Z,5.17
2019-04-26T15:07:14.807Z,5.87
2019-04-26T15:09:36.704Z,5.03
2019-04-26T15:12:01.237Z,5.35
2019-04-26T15:14:22.825Z,5.70
2019-04-26T15:16:44.964Z,5.22
2019-04-26T15:19:09.953Z,5.53
2019-04-26T15:21:34.359Z,6.87
2019-04-26T15:24:02.846Z,5.33
2019-04-26T15:26:29.768Z,5.47
2019-04-26T15:28:50.202Z,5.97
2019-04-26T15:31:13.106Z,6.30
2019-04-26T15:33:36.080Z,6.45
2019-04-26T15:35:58.085Z,6.25
2019-04-26T15:38:20.644Z,5.80
2019-04-26T15:40:44.098Z,5.40
2019-04-26T15:43:14.874Z,5.70
2019-04-26T15:45:39.798Z,4.97
2019-04-26T15:48:03.700Z,4.85
2019-04-26T15:50:35.727Z,6.17
2019-04-26T15:52:57.471Z,5.00
2019-04-26T15:55:21.995Z,6.35
2019-04-26T15:57:43.581Z,6.00
2019-04-26T16:00:06.165Z,5.35
2019-04-26T16:02:27.620Z,6.45
2019-04-26T16:04:51.431Z,6.55
2019-04-26T16:07:16.661Z,5.30
2019-04-26T16:09:35.590Z,5.95
2019-04-26T16:11:57.014Z,5.00
2019-04-26T16:14:18.602Z,6.03
2019-04-26T16:16:40.157Z,6.20
2019-04-26T16:19:02.969Z,5.62
2019-04-26T16:21:24.359Z,5.35
2019-04-26T16:23:51.139Z,6.15
2019-04-26T16:26:14.353Z,6.28
2019-04-26T16:28:34.372Z,6.50
2019-04-26T16:31:02.369Z,5.90
2019-04-26T16:33:33.081Z,6.53
2019-04-26T16:35:52.507Z,6.47
2019-04-26T16:38:33.108Z,6.05
2019-04-26T16:40:55.180Z,6.30
2019-04-26T16:43:36.089Z,6.40
2019-04-26T16:45:41.592Z,6.83
2019-04-26T16:48:04.298Z,7.17
2019-04-26T16:50:31.340Z,6.75
2019-04-26T16:52:49.327Z,6.47
2019-04-26T16:55:17.912Z,5.83
2019-04-26T16:57:34.211Z,5.37
2019-04-26T16:59:59.839Z,5.83
2019-04-26T17:02:25.629Z,5.70
2019-04-26T17:04:43.545Z,5.67
2019-04-26T17:07:05.554Z,5.47
2019-04-26T17:09:29.724Z,5.12
2019-04-26T17:11:52.242Z,5.92
2019-04-26T17:14:14.055Z,6.55
2019-04-26T17:16:38.109Z,5.80
2019-04-26T17:18:59.699Z,5.92
2019-04-26T17:21:25.604Z,5.58
2019-04-26T17:23:49.239Z,6.90
2019-04-26T17:26:24.386Z,7.12
2019-04-26T17:28:46.874Z,6.17
2019-04-26T17:31:08.529Z,5.47
2019-04-26T17:33:29.894Z,6.25
2019-04-26T17:35:51.483Z,6.15
2019-04-26T17:38:12.975Z,7.50
2019-04-26T17:40:36.780Z,5.33
2019-04-26T17:42:57.913Z,6.17
2019-04-26T17:45:21.156Z,5.83
2019-04-26T17:47:42.638Z,5.97
2019-04-26T17:50:06.373Z,6.40
2019-04-26T17:54:52.040Z,5.83
2019-04-26T17:57:14.856Z,6.50
2019-04-26T17:59:37.070Z,6.15
2019-04-26T18:02:01.055Z,6.45
2019-04-26T18:04:32.169Z,5.92
2019-04-26T18:06:55.883Z,7.60
2019-04-26T18:09:10.839Z,5.83
2019-04-26T18:11:33.003Z,6.53
2019-04-26T18:13:54.595Z,6.33
2019-04-26T18:16:17.746Z,6.65
2019-04-26T18:18:53.660Z,6.67
2019-04-26T18:21:27.022Z,6.10
2019-04-26T18:23:54.370Z,6.33
2019-04-26T18:26:13.471Z,7.15
2019-04-26T18:28:36.080Z,6.83
2019-04-26T18:30:57.680Z,5.95
2019-04-26T18:33:22.475Z,7.00
2019-04-26T18:35:45.165Z,7.57
2019-04-26T18:38:08.527Z,6.97
2019-04-26T18:40:28.949Z,6.87
2019-04-26T18:42:50.590Z,7.30
2019-04-26T18:45:13.764Z,6.83
2019-04-26T18:47:40.170Z,5.63
2019-04-26T18:50:04.722Z,7.15
2019-04-26T18:52:27.801Z,6.65
2019-04-26T18:54:51.634Z,7.83
2019-04-26T18:57:17.148Z,6.75
2019-04-26T18:59:37.640Z,4.55
2019-04-26T19:02:00.649Z,8.03
2019-04-26T19:04:23.626Z,7.33
2019-04-26T19:06:45.389Z,7.17
2019-04-26T19:09:06.963Z,6.72
2019-04-26T19:11:28.816Z,8.28
2019-04-26T19:14:06.441Z,8.10
2019-04-26T19:16:35.928Z,7.50
2019-04-26T19:18:59.302Z,9.00
2019-04-26T19:21:32.375Z,5.62
2019-04-26T19:24:04.895Z,8.95
2019-04-26T19:26:30.092Z,8.75
2019-04-26T19:28:43.208Z,8.10
2019-04-26T19:31:05.680Z,9.73
2019-04-26T19:33:29.779Z,8.00
2019-04-26T19:35:52.509Z,8.28
2019-04-26T19:38:14.834Z,7.97
2019-04-26T19:40:39.327Z,7.40
2019-04-26T19:43:03.192Z,7.83
2019-04-26T19:45:33.903Z,7.42
2019-04-26T19:47:59.964Z,8.13
2019-04-26T19:50:42.349Z,6.72
2019-04-26T19:53:10.348Z,7.60
2019-04-26T19:55:36.193Z,9.40
2019-04-26T19:58:05.622Z,8.13
2019-04-26T20:00:27.031Z,7.03
2019-04-26T20:02:48.397Z,6.53
2019-04-26T20:05:11.732Z,6.67
2019-04-26T20:07:34.081Z,6.53
2019-04-26T20:09:56.326Z,6.40
2019-04-26T20:12:19.334Z,5.17
2019-04-26T20:14:50.439Z,5.42
2019-04-26T20:17:04.804Z,5.17
2019-04-26T20:19:36.410Z,4.75
2019-04-26T20:21:52.652Z,5.50
2019-04-26T20:24:18.311Z,4.60
2019-04-26T20:26:41.978Z,4.40
2019-04-26T20:29:01.647Z,4.83
2019-04-26T20:31:37.500Z,4.10
2019-04-26T20:33:59.087Z,4.70
2019-04-26T20:36:21.630Z,4.05
2019-04-26T20:38:47.283Z,4.90
2019-04-26T20:41:06.775Z,4.28
2019-04-26T20:43:28.091Z,4.17
2019-04-26T20:46:10.612Z,4.40
2019-04-26T20:48:16.293Z,4.15
2019-04-26T20:50:37.786Z,3.60
2019-04-26T20:53:05.254Z,3.17
2019-04-26T20:55:30.589Z,3.25
2019-04-26T20:57:51.962Z,3.10
2019-04-26T21:00:13.996Z,2.70
2019-04-26T21:02:35.725Z,3.37
2019-04-26T21:04:57.167Z,3.72
2019-04-26T21:07:18.531Z,3.70
2019-04-26T21:09:43.410Z,3.20
2019-04-26T21:12:07.926Z,3.22
2019-04-26T21:14:28.396Z,3.03
2019-04-26T21:16:50.622Z,3.65
2019-04-26T21:19:18.989Z,3.08
2019-04-26T21:21:43.494Z,2.67
2019-04-26T21:24:03.613Z,2.87
2019-04-26T21:26:34.831Z,2.17
2019-04-26T21:29:03.319Z,2.98
2019-04-26T21:31:45.444Z,3.05
2019-04-26T21:34:22.360Z,2.72
2019-04-26T21:37:03.402Z,2.95
2019-04-26T21:39:33.843Z,2.77
2019-04-26T21:41:59.236Z,2.80
2019-04-26T21:44:21.458Z,2.80
2019-04-26T21:46:43.626Z,3.10
2019-04-26T21:49:05.145Z,3.30
2019-04-26T21:51:27.169Z,2.75
2019-04-26T21:53:50.041Z,3.12
2019-04-26T21:56:12.534Z,3.20
2019-04-26T21:58:34.862Z,2.77
2019-04-26T22:01:04.226Z,2.95
2019-04-26T22:03:26.072Z,3.25
2019-04-26T22:05:49.867Z,3.20
2019-04-26T22:08:12.912Z,2.77
2019-04-26T22:10:43.737Z,3.55
2019-04-26T22:13:07.817Z,3.37
2019-04-26T22:15:37.479Z,3.67
2019-04-26T22:18:00.533Z,3.17
2019-04-26T22:20:50.941Z,3.22
2019-04-26T22:23:33.155Z,3.15
2019-04-26T22:26:00.262Z,3.35
2019-04-26T22:28:26.964Z,2.72
2019-04-26T22:30:48.855Z,3.30
2019-04-26T22:33:10.748Z,3.60
2019-04-26T22:35:32.374Z,3.47
2019-04-26T22:37:53.829Z,3.10
2019-04-26T22:40:19.564Z,3.25
2019-04-26T22:42:42.159Z,2.72
2019-04-26T22:45:10.547Z,3.02
2019-04-26T22:47:44.674Z,3.33
2019-04-26T22:50:06.063Z,3.70
2019-04-26T22:52:27.642Z,3.30
2019-04-26T22:54:49.082Z,3.70
2019-04-26T22:57:13.220Z,3.67
2019-04-26T22:59:33.986Z,3.15
2019-04-26T23:01:55.470Z,3.40
2019-04-26T23:04:27.843Z,3.42
2019-04-26T23:06:57.276Z,3.65
2019-04-26T23:09:20.817Z,3.75
2019-04-26T23:11:46.632Z,3.30
2019-04-26T23:14:19.135Z,4.03
2019-04-26T23:17:01.554Z,3.05
2019-04-26T23:19:26.672Z,3.42
2019-04-26T23:21:53.148Z,3.72
2019-04-26T23:24:17.541Z,3.50
2019-04-26T23:26:37.518Z,4.40
2019-04-26T23:29:00.413Z,4.40
2019-04-26T23:31:23.597Z,4.15
2019-04-26T23:33:45.280Z,3.87
2019-04-26T23:36:06.896Z,4.05
2019-04-26T23:38:29.433Z,4.47
2019-04-26T23:40:50.820Z,4.35
2019-04-26T23:43:13.284Z,4.78
2019-04-26T23:45:34.851Z,4.28
2019-04-26T23:47:56.438Z,4.75
2019-04-26T23:50:17.952Z,3.75
2019-04-26T23:52:39.338Z,4.22
2019-04-26T23:55:05.045Z,4.62
2019-04-26T23:57:27.485Z,5.40
2019-04-26T23:59:51.037Z,4.70
